createdAt,value
2023-02-25T00:00:41.248Z,3.18
2023-02-25T00:05:49.802Z,3.03
2023-02-25T00:10:45.691Z,3.70
2023-02-25T00:15:45.816Z,3.19
2023-02-25T00:20:55.750Z,4.57
2023-02-25T00:25:50.423Z,4.61
2023-02-25T00:30:44.221Z,4.07
2023-02-25T00:35:40.410Z,4.13
2023-02-25T00:40:37.907Z,3.91
2023-02-25T00:45:34.826Z,4.17
2023-02-25T00:50:28.290Z,3.08
2023-02-25T00:55:33.901Z,3.73
2023-02-25T01:00:35.902Z,3.73
2023-02-25T01:05:34.205Z,3.35
2023-02-25T01:10:29.143Z,3.55
2023-02-25T01:15:22.716Z,3.47
2023-02-25T01:20:20.515Z,3.80
2023-02-25T01:25:17.733Z,2.73
2023-02-25T01:30:13.964Z,2.67
2023-02-25T01:35:07.705Z,3.49
2023-02-25T01:40:10.114Z,2.56
2023-02-25T01:45:26.018Z,2.32
2023-02-25T01:50:21.858Z,2.71
2023-02-25T01:55:18.350Z,2.59
2023-02-25T02:00:19.978Z,3.10
2023-02-25T02:05:50.029Z,3.30
2023-02-25T02:17:11.135Z,2.45
2023-02-25T02:22:13.966Z,3.53
2023-02-25T02:27:13.015Z,3.19
2023-02-25T02:32:17.644Z,3.29
2023-02-25T02:37:25.234Z,2.02
2023-02-25T02:42:31.248Z,3.34
2023-02-25T02:47:31.951Z,2.62
2023-02-25T02:52:33.506Z,1.71
2023-02-25T02:57:31.936Z,2.82
2023-02-25T03:02:32.984Z,2.03
2023-02-25T03:07:30.188Z,1.63
2023-02-25T03:12:24.832Z,2.87
2023-02-25T03:17:25.229Z,2.78
2023-02-25T03:22:28.728Z,1.43
2023-02-25T03:27:26.303Z,2.44
2023-02-25T03:32:26.118Z,2.26
2023-02-25T03:37:30.465Z,2.85
2023-02-25T03:42:34.486Z,2.29
2023-02-25T03:47:30.102Z,3.10
2023-02-25T03:52:32.510Z,2.51
2023-02-25T03:57:37.952Z,2.59
2023-02-25T04:02:36.923Z,1.32
2023-02-25T04:07:32.176Z,2.18
2023-02-25T04:12:28.696Z,1.69
2023-02-25T04:17:22.451Z,2.43
2023-02-25T04:22:19.284Z,2.11
2023-02-25T04:27:18.499Z,1.76
2023-02-25T04:32:15.689Z,1.46
2023-02-25T04:37:10.474Z,1.48
2023-02-25T04:42:09.366Z,1.50
2023-02-25T04:47:05.564Z,2.61
2023-02-25T04:52:04.998Z,1.33
2023-02-25T04:57:02.913Z,1.33
2023-02-25T05:01:57.085Z,1.49
2023-02-25T05:06:52.411Z,1.80
2023-02-25T05:12:01.360Z,1.53
2023-02-25T05:17:02.584Z,1.38
2023-02-25T05:21:57.699Z,2.40
2023-02-25T05:27:08.644Z,1.83
2023-02-25T05:32:20.015Z,2.46
2023-02-25T05:37:16.775Z,0.99
2023-02-25T05:42:13.894Z,1.03
2023-02-25T05:47:17.435Z,2.47
2023-02-25T05:52:24.052Z,2.37
2023-02-25T05:57:18.743Z,2.03
2023-02-25T06:02:21.472Z,1.46
2023-02-25T06:07:25.844Z,1.45
2023-02-25T06:12:22.626Z,1.98
2023-02-25T06:17:20.180Z,1.24
2023-02-25T06:22:19.243Z,2.24
2023-02-25T06:27:22.530Z,1.83
2023-02-25T06:32:38.692Z,2.75
2023-02-25T06:37:37.699Z,1.98
2023-02-25T06:42:53.796Z,2.21
2023-02-25T06:47:47.841Z,2.87
2023-02-25T06:52:51.598Z,2.51
2023-02-25T06:58:09.185Z,3.39
2023-02-25T07:09:08.417Z,4.45
2023-02-25T07:20:18.722Z,3.90
2023-02-25T07:31:48.642Z,5.14
2023-02-25T07:36:55.446Z,5.48
2023-02-25T07:41:57.685Z,5.70
2023-02-25T07:53:00.244Z,5.09
2023-02-25T08:09:42.637Z,6.70
2023-02-25T08:22:11.146Z,8.16
2023-02-25T08:28:21.098Z,8.37
2023-02-25T10:02:01.854Z,14.24
2023-02-25T10:06:56.200Z,14.13
2023-02-25T10:11:54.830Z,13.68
2023-02-25T10:16:59.261Z,13.88
2023-02-25T10:22:10.000Z,14.02
2023-02-25T10:27:07.572Z,14.06
2023-02-25T10:32:17.664Z,13.97
2023-02-25T10:37:18.811Z,13.89
2023-02-25T10:42:13.296Z,13.12
2023-02-25T10:47:13.373Z,13.33
2023-02-25T10:52:10.483Z,13.67
2023-02-25T10:57:09.866Z,13.59
2023-02-25T11:02:03.514Z,13.85
2023-02-25T11:06:58.221Z,13.93
2023-02-25T11:11:56.400Z,13.88
2023-02-25T11:16:49.913Z,13.65
2023-02-25T11:21:44.128Z,13.71
2023-02-25T11:26:42.667Z,13.69
2023-02-25T11:31:40.834Z,13.91
2023-02-25T11:36:36.398Z,13.34
2023-02-25T11:41:35.530Z,13.82
2023-02-25T11:46:34.081Z,13.51
2023-02-25T11:51:30.997Z,13.72
2023-02-25T11:56:29.816Z,14.14
2023-02-25T12:01:36.729Z,14.18
2023-02-25T12:06:43.765Z,14.27
2023-02-25T12:12:29.951Z,14.35
2023-02-25T12:23:55.096Z,14.50
2023-02-25T12:29:17.738Z,14.32
2023-02-25T12:34:43.248Z,14.44
2023-02-25T12:40:04.565Z,14.32
2023-02-25T12:45:29.980Z,14.13
2023-02-25T12:50:39.322Z,13.93
2023-02-25T12:55:58.469Z,13.68
2023-02-25T13:01:23.745Z,13.72
2023-02-25T13:06:28.314Z,13.49
2023-02-25T13:11:42.214Z,13.65
2023-02-25T13:17:08.002Z,13.49
2023-02-25T13:22:13.957Z,13.26
2023-02-25T13:27:24.021Z,13.43
2023-02-25T13:32:32.899Z,13.37
2023-02-25T13:37:52.496Z,12.89
2023-02-25T13:43:11.562Z,13.43
2023-02-25T13:48:33.889Z,13.39
2023-02-25T13:53:49.702Z,13.65
2023-02-25T13:58:56.942Z,13.68
2023-02-25T14:04:38.186Z,13.71
2023-02-25T14:09:42.527Z,13.55
2023-02-25T14:14:54.241Z,13.44
2023-02-25T14:20:01.604Z,13.70
2023-02-25T14:25:08.171Z,13.82
2023-02-25T14:30:17.284Z,13.91
2023-02-25T14:35:34.085Z,13.69
2023-02-25T14:40:34.780Z,13.81
2023-02-25T14:45:34.118Z,13.89
2023-02-25T14:50:33.852Z,13.70
2023-02-25T14:56:02.886Z,13.90
2023-02-25T15:01:40.656Z,13.34
2023-02-25T15:07:09.717Z,13.29
2023-02-25T15:12:27.426Z,13.79
2023-02-25T15:17:44.116Z,13.77
2023-02-25T15:22:41.488Z,13.66
2023-02-25T15:27:56.713Z,13.50
2023-02-25T15:33:16.139Z,13.02
2023-02-25T15:38:14.795Z,13.40
2023-02-25T15:43:39.451Z,13.18
2023-02-25T15:48:38.065Z,13.08
2023-02-25T15:53:48.421Z,12.98
2023-02-25T17:35:30.908Z,14.39
2023-02-25T17:40:42.112Z,13.03
2023-02-25T17:46:58.513Z,12.54
2023-02-25T17:52:29.545Z,13.88
2023-02-25T17:58:14.255Z,13.65
2023-02-25T18:03:42.270Z,12.43
2023-02-25T18:21:38.760Z,12.94
2023-02-25T18:28:15.087Z,12.31
2023-02-25T18:33:35.360Z,12.07
2023-02-25T18:51:47.217Z,14.19
2023-02-25T18:57:41.118Z,14.03
2023-02-25T19:03:15.919Z,13.82
2023-02-25T19:08:39.303Z,14.01
2023-02-25T19:13:44.656Z,14.02
2023-02-25T19:40:40.167Z,13.64
2023-02-25T20:13:13.191Z,14.57
2023-02-25T20:21:03.842Z,14.53
2023-02-25T20:33:55.195Z,14.13
2023-02-25T20:40:21.151Z,14.07
2023-02-25T21:23:11.714Z,12.77
2023-02-25T21:28:20.591Z,11.20
2023-02-25T21:41:27.807Z,10.97
2023-02-25T21:59:52.791Z,11.55
2023-02-25T22:05:03.935Z,11.01
